createdAt,value
2019-01-25T00:00:54.703Z,-3.30
2019-01-25T00:03:21.380Z,-3.20
2019-01-25T00:05:48.212Z,-3.20
2019-01-25T00:08:15.021Z,-3.20
2019-01-25T00:10:41.921Z,-3.30
2019-01-25T00:13:08.676Z,-3.30
2019-01-25T00:15:35.562Z,-3.30
2019-01-25T00:18:03.146Z,-3.30
2019-01-25T00:20:30.475Z,-3.30
2019-01-25T00:22:57.296Z,-3.30
2019-01-25T00:25:23.966Z,-3.30
2019-01-25T00:27:50.757Z,-3.40
2019-01-25T00:30:18.546Z,-3.40
2019-01-25T00:32:45.449Z,-3.30
2019-01-25T00:35:12.429Z,-3.30
2019-01-25T00:37:39.289Z,-3.20
2019-01-25T00:40:08.654Z,-3.30
2019-01-25T00:42:35.346Z,-3.30
2019-01-25T00:45:02.440Z,-3.40
2019-01-25T00:47:29.268Z,-3.20
2019-01-25T00:49:55.896Z,-3.20
2019-01-25T00:52:23.408Z,-3.20
2019-01-25T00:54:50.202Z,-3.20
2019-01-25T00:57:16.957Z,-3.20
2019-01-25T00:59:44.075Z,-3.20
2019-01-25T01:02:10.892Z,-3.20
2019-01-25T01:04:37.896Z,-3.20
2019-01-25T01:07:04.808Z,-3.20
2019-01-25T01:09:31.425Z,-3.20
2019-01-25T01:11:58.091Z,-3.20
2019-01-25T01:14:24.808Z,-3.20
2019-01-25T01:16:51.533Z,-3.20
2019-01-25T01:19:18.230Z,-3.20
2019-01-25T01:21:44.969Z,-3.10
2019-01-25T01:24:11.615Z,-3.10
2019-01-25T01:26:38.325Z,-3.10
2019-01-25T01:29:07.670Z,-3.10
2019-01-25T01:31:34.477Z,-3.00
2019-01-25T01:34:01.101Z,-3.10
2019-01-25T01:36:27.728Z,-3.00
2019-01-25T01:38:54.365Z,-3.10
2019-01-25T01:41:21.012Z,-3.10
2019-01-25T01:43:47.712Z,-3.20
2019-01-25T01:46:14.345Z,-3.20
2019-01-25T01:48:41.082Z,-3.20
2019-01-25T01:51:08.134Z,-3.20
2019-01-25T01:53:34.899Z,-3.10
2019-01-25T01:56:01.757Z,-3.10
2019-01-25T01:58:28.396Z,-3.20
2019-01-25T02:00:55.121Z,-3.20
2019-01-25T02:03:21.778Z,-3.20
2019-01-25T02:05:48.490Z,-3.20
2019-01-25T02:08:15.142Z,-3.20
2019-01-25T02:10:41.913Z,-3.20
2019-01-25T02:13:08.581Z,-3.20
2019-01-25T02:15:35.261Z,-3.30
2019-01-25T02:18:01.958Z,-3.20
2019-01-25T02:20:29.721Z,-3.10
2019-01-25T02:22:56.414Z,-3.00
2019-01-25T02:25:24.268Z,-3.10
2019-01-25T02:27:51.328Z,-3.10
2019-01-25T02:30:19.675Z,-3.10
2019-01-25T02:32:46.494Z,-3.10
2019-01-25T02:35:13.370Z,-3.10
2019-01-25T02:37:40.122Z,-3.10
2019-01-25T02:42:34.529Z,-3.00
2019-01-25T02:45:01.218Z,-3.10
2019-01-25T02:47:28.365Z,-3.10
2019-01-25T02:49:55.053Z,-3.10
2019-01-25T02:52:21.725Z,-3.00
2019-01-25T02:54:48.411Z,-2.90
2019-01-25T02:57:15.359Z,-3.00
2019-01-25T02:59:42.297Z,-3.20
2019-01-25T03:02:09.157Z,-3.20
2019-01-25T03:04:36.039Z,-3.20
2019-01-25T03:07:03.712Z,-3.10
2019-01-25T03:09:30.630Z,-3.10
2019-01-25T03:11:57.496Z,-3.10
2019-01-25T03:14:24.303Z,-3.10
2019-01-25T03:16:51.186Z,-3.10
2019-01-25T03:19:17.964Z,-3.10
2019-01-25T03:21:44.954Z,-3.20
2019-01-25T03:24:11.788Z,-3.20
2019-01-25T03:26:38.472Z,-3.20
2019-01-25T03:29:05.160Z,-3.10
2019-01-25T03:31:31.817Z,-3.10
2019-01-25T03:33:58.546Z,-3.00
2019-01-25T03:36:25.696Z,-3.00
2019-01-25T03:38:52.393Z,-3.00
2019-01-25T03:41:19.276Z,-3.00
2019-01-25T03:43:45.898Z,-3.00
2019-01-25T03:46:12.725Z,-3.00
2019-01-25T03:48:39.574Z,-3.10
2019-01-25T03:51:06.263Z,-3.10
2019-01-25T03:53:32.856Z,-3.10
2019-01-25T03:55:59.576Z,-3.00
2019-01-25T03:58:26.189Z,-3.00
2019-01-25T04:00:52.816Z,-2.90
2019-01-25T04:03:19.813Z,-3.00
2019-01-25T04:05:46.416Z,-3.00
2019-01-25T04:08:13.025Z,-3.00
2019-01-25T04:10:39.684Z,-2.90
2019-01-25T04:13:06.305Z,-2.90
2019-01-25T04:15:33.227Z,-2.90
2019-01-25T04:17:59.928Z,-3.00
2019-01-25T04:20:26.893Z,-2.90
2019-01-25T04:22:53.640Z,-3.00
2019-01-25T04:25:20.777Z,-3.00
2019-01-25T04:27:47.802Z,-3.00
2019-01-25T04:30:19.759Z,-3.00
2019-01-25T04:32:46.548Z,-2.90
2019-01-25T04:35:13.615Z,-2.80
2019-01-25T04:37:40.283Z,-2.90
2019-01-25T04:40:09.106Z,-2.80
2019-01-25T04:42:36.841Z,-2.60
2019-01-25T04:45:04.693Z,-2.60
2019-01-25T14:41:49.247Z,-1.80
2019-01-25T14:44:16.003Z,-1.70
2019-01-25T14:46:42.691Z,-1.70
2019-01-25T14:49:09.442Z,-1.70
2019-01-25T14:51:36.036Z,-1.80
2019-01-25T14:54:03.001Z,-1.80
2019-01-25T14:56:29.623Z,-1.70
2019-01-25T14:58:56.448Z,-1.90
2019-01-25T15:01:23.525Z,-1.80
2019-01-25T15:03:50.250Z,-1.70
2019-01-25T15:06:16.953Z,-1.70
2019-01-25T15:08:43.591Z,-1.80
2019-01-25T15:11:10.701Z,-1.90
2019-01-25T15:13:37.433Z,-2.00
2019-01-25T15:16:04.258Z,-1.90
2019-01-25T15:18:31.004Z,-1.90
2019-01-25T15:20:57.693Z,-2.00
2019-01-25T15:23:24.516Z,-2.20
2019-01-25T15:25:51.202Z,-2.10
2019-01-25T15:28:18.064Z,-2.00
2019-01-25T15:30:45.107Z,-2.00
2019-01-25T15:33:12.647Z,-2.20
2019-01-25T15:35:39.275Z,-2.20
2019-01-25T15:38:06.036Z,-2.20
2019-01-25T15:40:32.834Z,-2.00
2019-01-25T15:42:59.513Z,-2.00
2019-01-25T15:45:26.319Z,-2.00
2019-01-25T15:47:53.109Z,-1.90
2019-01-25T15:50:22.202Z,-1.90
2019-01-25T15:52:49.323Z,-1.90
2019-01-25T15:55:17.008Z,-1.80
2019-01-25T15:57:44.071Z,-1.80
2019-01-25T16:00:13.772Z,-1.80
2019-01-25T16:02:41.318Z,-1.80
2019-01-25T16:05:10.087Z,-1.90
2019-01-25T16:07:36.877Z,-1.80
2019-01-25T16:10:05.414Z,-1.80
2019-01-25T16:12:32.880Z,-1.80
2019-01-25T16:14:59.717Z,-1.80
2019-01-25T16:17:26.582Z,-1.80
2019-01-25T16:19:54.158Z,-1.80
2019-01-25T16:22:20.970Z,-1.90
2019-01-25T16:24:48.321Z,-1.80
2019-01-25T16:27:15.346Z,-1.70
2019-01-25T16:29:42.548Z,-1.80
2019-01-25T16:32:10.443Z,-1.70
2019-01-25T16:34:37.737Z,-1.80
2019-01-25T16:37:05.583Z,-1.80
2019-01-25T16:39:32.681Z,-1.80
2019-01-25T16:41:59.681Z,-1.80
2019-01-25T16:44:26.521Z,-1.80
2019-01-25T16:46:53.399Z,-1.80
2019-01-25T16:49:20.175Z,-1.80
2019-01-25T16:51:46.981Z,-1.70
2019-01-25T16:54:14.243Z,-1.70
2019-01-25T16:56:41.014Z,-1.70
2019-01-25T16:59:07.893Z,-1.70
2019-01-25T17:01:38.038Z,-1.70
2019-01-25T17:04:04.901Z,-1.60
2019-01-25T17:06:31.627Z,-1.60
2019-01-25T17:08:58.376Z,-1.70
2019-01-25T17:11:25.133Z,-1.70
2019-01-25T17:13:51.867Z,-1.70
2019-01-25T17:16:18.832Z,-1.70
2019-01-25T17:18:45.669Z,-1.70
2019-01-25T17:21:12.924Z,-1.80
2019-01-25T17:23:39.706Z,-1.70
2019-01-25T17:26:07.009Z,-1.70
2019-01-25T17:28:34.009Z,-1.80
2019-01-25T17:31:01.236Z,-1.80
2019-01-25T17:33:28.376Z,-1.80
2019-01-25T17:35:54.973Z,-1.80
2019-01-25T17:38:25.492Z,-1.80
2019-01-25T17:40:52.241Z,-1.70
2019-01-25T17:43:19.182Z,-1.70
2019-01-25T17:45:45.874Z,-1.80
2019-01-25T17:48:12.949Z,-1.70
2019-01-25T17:50:39.566Z,-1.70
2019-01-25T17:53:06.187Z,-1.70
2019-01-25T17:55:32.930Z,-1.60
2019-01-25T17:57:59.697Z,-1.70
2019-01-25T18:00:30.115Z,-1.70
2019-01-25T18:02:57.105Z,-1.70
2019-01-25T18:05:23.760Z,-1.70
2019-01-25T18:07:50.913Z,-1.60
2019-01-25T18:10:17.884Z,-1.60
2019-01-25T18:12:44.583Z,-1.70
2019-01-25T18:15:12.236Z,-1.60
2019-01-25T18:17:38.980Z,-1.60
2019-01-25T18:20:07.587Z,-1.60
2019-01-25T18:22:34.601Z,-1.60
2019-01-25T18:25:01.556Z,-1.60
2019-01-25T18:27:28.224Z,-1.60
2019-01-25T18:29:57.336Z,-1.60
2019-01-25T18:32:26.463Z,-1.60
2019-01-25T18:34:53.081Z,-1.70
2019-01-25T18:37:20.177Z,-1.60
2019-01-25T18:39:46.845Z,-1.60
2019-01-25T18:42:13.597Z,-1.60
2019-01-25T18:44:40.306Z,-1.60
2019-01-25T18:47:06.916Z,-1.60
2019-01-25T18:49:33.591Z,-1.60
2019-01-25T18:52:03.532Z,-1.60
2019-01-25T18:54:32.565Z,-1.60
2019-01-25T18:57:02.503Z,-1.50
2019-01-25T18:59:30.119Z,-1.50
2019-01-25T19:01:56.886Z,-1.60
2019-01-25T19:04:23.541Z,-1.60
2019-01-25T19:06:51.066Z,-1.60
2019-01-25T19:09:17.797Z,-1.60
2019-01-25T19:11:44.508Z,-1.60
2019-01-25T19:14:11.375Z,-1.60
2019-01-25T19:16:38.293Z,-1.50
2019-01-25T19:19:05.078Z,-1.50
2019-01-25T19:21:31.995Z,-1.50
2019-01-25T19:23:59.149Z,-1.50
2019-01-25T19:26:26.592Z,-1.50
2019-01-25T19:28:53.704Z,-1.50
2019-01-25T19:31:21.053Z,-1.40
2019-01-25T19:33:48.271Z,-1.40
2019-01-25T19:36:15.105Z,-1.50
2019-01-25T19:38:41.840Z,-1.60
2019-01-25T19:41:11.591Z,-1.60
2019-01-25T19:43:39.213Z,-1.70
2019-01-25T19:46:06.337Z,-1.70
2019-01-25T19:48:33.240Z,-1.60
2019-01-25T19:51:00.927Z,-1.70
2019-01-25T19:53:27.574Z,-1.60
2019-01-25T19:55:54.689Z,-1.60
2019-01-25T19:58:21.906Z,-1.70
2019-01-25T20:00:50.033Z,-1.90
2019-01-25T20:03:16.802Z,-1.90
2019-01-25T20:05:43.804Z,-1.90
2019-01-25T20:08:11.123Z,-1.90
2019-01-25T20:10:37.912Z,-1.90
2019-01-25T20:13:05.448Z,-1.90
2019-01-25T20:15:32.200Z,-1.90
2019-01-25T20:17:59.165Z,-2.00
2019-01-25T20:20:28.140Z,-1.90
2019-01-25T20:22:55.033Z,-2.00
2019-01-25T20:25:22.067Z,-2.10
2019-01-25T20:27:48.958Z,-2.00
2019-01-25T20:30:18.392Z,-2.00
2019-01-25T20:32:45.248Z,-2.00
2019-01-25T20:35:14.457Z,-2.10
2019-01-25T20:37:43.934Z,-2.00
2019-01-25T20:40:12.627Z,-2.10
2019-01-25T20:42:39.682Z,-2.10
2019-01-25T20:45:12.408Z,-2.20
2019-01-25T20:47:39.336Z,-2.20
2019-01-25T20:50:10.040Z,-2.20
2019-01-25T20:52:37.088Z,-2.20
2019-01-25T20:55:04.808Z,-2.20
2019-01-25T20:57:31.858Z,-2.10
2019-01-25T20:59:58.464Z,-2.30
2019-01-25T21:02:25.096Z,-2.20
2019-01-25T21:04:51.788Z,-2.20
2019-01-25T21:07:18.630Z,-2.20
2019-01-25T21:09:45.305Z,-2.10
2019-01-25T21:12:11.951Z,-2.20
2019-01-25T21:14:38.547Z,-2.10
2019-01-25T21:17:05.181Z,-2.10
2019-01-25T21:19:31.786Z,-2.00
2019-01-25T21:21:58.372Z,-2.10
2019-01-25T21:24:25.217Z,-2.20
2019-01-25T21:26:51.995Z,-2.20
2019-01-25T21:29:18.597Z,-2.20
2019-01-25T21:31:45.274Z,-2.30
2019-01-25T21:34:11.996Z,-2.30
2019-01-25T21:36:40.193Z,-2.20
2019-01-25T21:39:08.045Z,-2.20
2019-01-25T21:41:34.731Z,-2.20
2019-01-25T21:44:01.352Z,-2.20
2019-01-25T21:46:30.429Z,-2.20
2019-01-25T21:48:57.085Z,-2.20
2019-01-25T21:51:23.952Z,-2.30
2019-01-25T21:53:50.648Z,-2.20
2019-01-25T21:56:18.472Z,-2.10
2019-01-25T21:58:45.085Z,-2.20
2019-01-25T22:01:13.781Z,-2.20
2019-01-25T22:03:40.952Z,-2.20
2019-01-25T22:06:07.986Z,-2.20
2019-01-25T22:08:34.932Z,-2.20
2019-01-25T22:11:04.624Z,-2.20
2019-01-25T22:13:31.411Z,-2.20
2019-01-25T22:15:58.153Z,-2.20
2019-01-25T22:18:24.895Z,-2.30
2019-01-25T22:20:51.559Z,-2.10
2019-01-25T22:23:18.267Z,-2.10
2019-01-25T22:25:45.205Z,-2.10
2019-01-25T22:28:11.854Z,-2.00
2019-01-25T22:30:38.521Z,-2.00
2019-01-25T22:33:05.120Z,-1.90
2019-01-25T22:35:31.755Z,-1.90
2019-01-25T22:37:58.396Z,-1.80
2019-01-25T22:40:30.143Z,-1.80
2019-01-25T22:42:57.140Z,-1.80
2019-01-25T22:45:25.727Z,-1.90
2019-01-25T22:47:52.365Z,-1.80
2019-01-25T22:50:21.112Z,-1.70
2019-01-25T22:52:48.103Z,-1.70
2019-01-25T22:55:15.405Z,-1.70
2019-01-25T22:57:42.487Z,-1.70
2019-01-25T23:00:47.633Z,-1.70
2019-01-25T23:03:15.513Z,-1.70
2019-01-25T23:06:09.275Z,-1.60
2019-01-25T23:08:35.900Z,-1.60
2019-01-25T23:11:02.859Z,-1.60
2019-01-25T23:13:35.556Z,-1.70
2019-01-25T23:16:06.433Z,-1.70
2019-01-25T23:18:31.203Z,-1.70
2019-01-25T23:20:57.928Z,-1.80
2019-01-25T23:23:24.731Z,-1.80
2019-01-25T23:25:51.459Z,-1.80
2019-01-25T23:28:18.061Z,-1.80
2019-01-25T23:30:44.736Z,-1.80
2019-01-25T23:33:11.362Z,-2.00
2019-01-25T23:35:38.588Z,-1.90
2019-01-25T23:38:05.370Z,-1.90
2019-01-25T23:40:31.971Z,-1.90
2019-01-25T23:42:58.605Z,-1.90
2019-01-25T23:45:25.332Z,-1.90
2019-01-25T23:47:51.952Z,-1.80
2019-01-25T23:50:18.752Z,-1.90
2019-01-25T23:52:45.393Z,-2.00
2019-01-25T23:55:12.099Z,-2.00
2019-01-25T23:57:38.881Z,-2.00
